sensor_id;sensor_type;location;lat;lon;timestamp;pressure;altitude;pressure_sealevel;temperature;humidity
70072;BME280;57434;42.794;23.302;2023-03-20T00:00:01;96009.22;;;1.94;69.11
70072;BME280;57434;42.794;23.302;2023-03-20T00:01:09;95821.63;;;0.77;68.69
70072;BME280;57434;42.794;23.302;2023-03-20T00:02:18;96027.72;;;1.57;69.14
70072;BME280;57434;42.794;23.302;2023-03-20T00:03:20;95931.38;;;1.16;69.22
70072;BME280;57434;42.794;23.302;2023-03-20T00:04:22;95972.78;;;1.40;68.95
70072;BME280;57434;42.794;23.302;2023-03-20T00:05:25;95865.78;;;0.57;69.32
70072;BME280;57434;42.794;23.302;2023-03-20T00:06:27;95753.16;;;-0.41;70.04
70072;BME280;57434;42.794;23.302;2023-03-20T00:07:29;95921.81;;;0.78;70.01
70072;BME280;57434;42.794;23.302;2023-03-20T00:08:31;95991.94;;;1.07;69.88
70072;BME280;57434;42.794;23.302;2023-03-20T00:09:32;95947.84;;;1.00;70.07
70072;BME280;57434;42.794;23.302;2023-03-20T00:10:36;95966.00;;;1.21;70.21
70072;BME280;57434;42.794;23.302;2023-03-20T00:11:46;95977.22;;;1.14;70.35
70072;BME280;57434;42.794;23.302;2023-03-20T00:12:49;95986.16;;;0.98;70.46
70072;BME280;57434;42.794;23.302;2023-03-20T00:13:52;95840.66;;;0.28;70.34
70072;BME280;57434;42.794;23.302;2023-03-20T00:14:54;95970.91;;;1.13;70.48
70072;BME280;57434;42.794;23.302;2023-03-20T00:15:56;95822.78;;;0.37;70.10
70072;BME280;57434;42.794;23.302;2023-03-20T00:16:57;95946.88;;;1.30;69.84
70072;BME280;57434;42.794;23.302;2023-03-20T00:17:59;95872.47;;;0.80;69.59
70072;BME280;57434;42.794;23.302;2023-03-20T00:19:02;95970.22;;;1.68;69.44
70072;BME280;57434;42.794;23.302;2023-03-20T00:20:04;95989.59;;;1.68;69.29
70072;BME280;57434;42.794;23.302;2023-03-20T00:21:14;95925.25;;;1.25;69.44
70072;BME280;57434;42.794;23.302;2023-03-20T00:22:17;95978.00;;;1.54;68.92
70072;BME280;57434;42.794;23.302;2023-03-20T00:23:19;95776.19;;;0.39;69.02
70072;BME280;57434;42.794;23.302;2023-03-20T00:24:22;95967.72;;;1.74;69.24
70072;BME280;57434;42.794;23.302;2023-03-20T00:25:24;95858.16;;;1.04;68.96
70072;BME280;57434;42.794;23.302;2023-03-20T00:26:31;95775.03;;;0.59;68.88
70072;BME280;57434;42.794;23.302;2023-03-20T00:27:34;95944.38;;;1.75;69.01
70072;BME280;57434;42.794;23.302;2023-03-20T00:28:43;95801.56;;;1.13;68.83
70072;BME280;57434;42.794;23.302;2023-03-20T00:29:46;95972.06;;;2.11;68.64
70072;BME280;57434;42.794;23.302;2023-03-20T00:30:48;95973.19;;;2.14;68.41
70072;BME280;57434;42.794;23.302;2023-03-20T00:31:50;95920.16;;;1.99;68.07
70072;BME280;57434;42.794;23.302;2023-03-20T00:32:52;95966.53;;;2.11;68.22
70072;BME280;57434;42.794;23.302;2023-03-20T00:33:59;95796.41;;;1.15;68.20
70072;BME280;57434;42.794;23.302;2023-03-20T00:35:16;95945.31;;;2.04;68.11
70072;BME280;57434;42.794;23.302;2023-03-20T00:36:19;95919.19;;;2.05;67.98
70072;BME280;57434;42.794;23.302;2023-03-20T00:37:21;95884.13;;;1.66;67.87
70072;BME280;57434;42.794;23.302;2023-03-20T00:38:22;95727.34;;;0.95;67.59
70072;BME280;57434;42.794;23.302;2023-03-20T00:39:24;95989.50;;;2.44;67.53
70072;BME280;57434;42.794;23.302;2023-03-20T00:40:29;95856.13;;;1.64;67.46
70072;BME280;57434;42.794;23.302;2023-03-20T00:42:39;95884.22;;;1.63;68.00
70072;BME280;57434;42.794;23.302;2023-03-20T00:43:41;95937.72;;;2.09;67.86
70072;BME280;57434;42.794;23.302;2023-03-20T00:44:51;95982.22;;;2.18;67.89
70072;BME280;57434;42.794;23.302;2023-03-20T00:45:55;95853.22;;;1.52;67.63
70072;BME280;57434;42.794;23.302;2023-03-20T00:46:59;95955.16;;;1.89;67.52
70072;BME280;57434;42.794;23.302;2023-03-20T00:48:02;95975.22;;;1.93;67.93
70072;BME280;57434;42.794;23.302;2023-03-20T00:49:04;95835.25;;;1.24;67.89
70072;BME280;57434;42.794;23.302;2023-03-20T00:50:14;95780.09;;;1.00;67.77
70072;BME280;57434;42.794;23.302;2023-03-20T00:51:16;95788.69;;;1.06;67.67
70072;BME280;57434;42.794;23.302;2023-03-20T00:52:19;95988.44;;;2.22;67.69
70072;BME280;57434;42.794;23.302;2023-03-20T00:53:21;95928.72;;;2.04;67.55
70072;BME280;57434;42.794;23.302;2023-03-20T00:54:23;95974.53;;;2.25;67.47
70072;BME280;57434;42.794;23.302;2023-03-20T00:55:27;95782.16;;;0.96;67.76
70072;BME280;57434;42.794;23.302;2023-03-20T00:56:33;95947.72;;;2.02;68.10
70072;BME280;57434;42.794;23.302;2023-03-20T00:58:02;95948.63;;;1.99;68.36
70072;BME280;57434;42.794;23.302;2023-03-20T00:59:04;95966.00;;;2.00;68.74
70072;BME280;57434;42.794;23.302;2023-03-20T01:01:28;95810.78;;;1.06;68.52
70072;BME280;57434;42.794;23.302;2023-03-20T01:02:31;95755.91;;;0.68;68.37
70072;BME280;57434;42.794;23.302;2023-03-20T01:03:33;95967.72;;;1.94;68.59
70072;BME280;57434;42.794;23.302;2023-03-20T01:04:40;95810.00;;;1.06;68.14
70072;BME280;57434;42.794;23.302;2023-03-20T01:05:43;95940.38;;;1.96;68.22
70072;BME280;57434;42.794;23.302;2023-03-20T01:06:45;95968.22;;;1.89;68.29
70072;BME280;57434;42.794;23.302;2023-03-20T01:07:47;95955.16;;;1.89;68.12
70072;BME280;57434;42.794;23.302;2023-03-20T01:08:49;95934.28;;;1.29;68.05
70072;BME280;57434;42.794;23.302;2023-03-20T01:09:51;95790.94;;;0.09;69.12
70072;BME280;57434;42.794;23.302;2023-03-20T01:10:54;95813.84;;;0.29;69.68
70072;BME280;57434;42.794;23.302;2023-03-20T01:11:58;95943.41;;;1.06;69.58
70072;BME280;57434;42.794;23.302;2023-03-20T01:13:01;95816.63;;;0.06;69.81
70072;BME280;57434;42.794;23.302;2023-03-20T01:14:04;95827.81;;;0.18;69.45
70072;BME280;57434;42.794;23.302;2023-03-20T01:15:32;95964.34;;;0.60;70.08
70072;BME280;57434;42.794;23.302;2023-03-20T01:16:34;95812.47;;;-0.06;69.77
70072;BME280;57434;42.794;23.302;2023-03-20T01:17:36;95988.81;;;1.05;69.15
70072;BME280;57434;42.794;23.302;2023-03-20T01:18:38;95941.31;;;0.90;68.94
70072;BME280;57434;42.794;23.302;2023-03-20T01:19:40;95912.63;;;0.38;69.10
70072;BME280;57434;42.794;23.302;2023-03-20T01:20:42;95912.94;;;0.43;69.36
70072;BME280;57434;42.794;23.302;2023-03-20T01:21:44;95830.69;;;-0.39;70.08
70072;BME280;57434;42.794;23.302;2023-03-20T01:22:46;95784.84;;;-0.80;70.69
70072;BME280;57434;42.794;23.302;2023-03-20T01:23:48;95805.41;;;-0.88;71.38
70072;BME280;57434;42.794;23.302;2023-03-20T01:24:50;95850.91;;;-0.46;71.39
70072;BME280;57434;42.794;23.302;2023-03-20T01:25:52;95946.72;;;0.00;71.38
70072;BME280;57434;42.794;23.302;2023-03-20T01:26:54;95972.56;;;0.10;71.65
70072;BME280;57434;42.794;23.302;2023-03-20T01:27:56;95942.91;;;0.18;71.39
70072;BME280;57434;42.794;23.302;2023-03-20T01:28:58;95782.19;;;-0.60;71.02
70072;BME280;57434;42.794;23.302;2023-03-20T01:29:59;95912.63;;;0.14;70.82
70072;BME280;57434;42.794;23.302;2023-03-20T01:31:01;95943.19;;;0.50;70.47
70072;BME280;57434;42.794;23.302;2023-03-20T01:32:07;95786.53;;;-0.36;70.47
70072;BME280;57434;42.794;23.302;2023-03-20T01:33:21;95919.28;;;0.40;70.84
70072;BME280;57434;42.794;23.302;2023-03-20T01:34:24;95801.34;;;-0.49;70.84
70072;BME280;57434;42.794;23.302;2023-03-20T01:35:27;95817.59;;;-0.58;71.14
70072;BME280;57434;42.794;23.302;2023-03-20T01:36:29;95799.50;;;-0.59;71.32
70072;BME280;57434;42.794;23.302;2023-03-20T01:37:31;95772.38;;;-0.88;72.08
70072;BME280;57434;42.794;23.302;2023-03-20T01:38:33;95925.16;;;0.19;72.41
70072;BME280;57434;42.794;23.302;2023-03-20T01:39:36;95952.19;;;0.54;72.09
70072;BME280;57434;42.794;23.302;2023-03-20T01:41:46;95793.72;;;-0.42;71.17
70072;BME280;57434;42.794;23.302;2023-03-20T01:42:49;95874.22;;;-0.00;71.35
70072;BME280;57434;42.794;23.302;2023-03-20T01:43:51;95915.69;;;0.20;71.34
70072;BME280;57434;42.794;23.302;2023-03-20T01:44:53;95861.78;;;-0.12;71.37
70072;BME280;57434;42.794;23.302;2023-03-20T01:47:14;95920.69;;;0.52;71.20
70072;BME280;57434;42.794;23.302;2023-03-20T01:48:18;95873.56;;;0.16;70.70
70072;BME280;57434;42.794;23.302;2023-03-20T01:50:30;95822.59;;;0.00;70.16
70072;BME280;57434;42.794;23.302;2023-03-20T01:51:33;95979.81;;;0.54;70.75
70072;BME280;57434;42.794;23.302;2023-03-20T01:52:34;95786.72;;;-0.46;71.61
70072;BME280;57434;42.794;23.302;2023-03-20T01:53:36;95836.34;;;0.04;71.30
70072;BME280;57434;42.794;23.302;2023-03-20T01:54:38;95992.41;;;1.02;71.38
70072;BME280;57434;42.794;23.302;2023-03-20T01:55:42;95842.28;;;0.26;71.02
70072;BME280;57434;42.794;23.302;2023-03-20T01:56:50;95911.25;;;0.73;70.24
70072;BME280;57434;42.794;23.302;2023-03-20T01:57:56;95779.63;;;0.03;69.48
70072;BME280;57434;42.794;23.302;2023-03-20T01:59:22;95796.44;;;0.32;69.83
70072;BME280;57434;42.794;23.302;2023-03-20T02:00:25;95915.28;;;1.11;69.94
70072;BME280;57434;42.794;23.302;2023-03-20T02:01:28;95823.16;;;0.58;70.09
70072;BME280;57434;42.794;23.302;2023-03-20T02:02:30;95968.69;;;1.24;69.56
70072;BME280;57434;42.794;23.302;2023-03-20T02:03:33;95768.88;;;-0.15;69.79
70072;BME280;57434;42.794;23.302;2023-03-20T02:04:38;95860.38;;;0.50;70.06
70072;BME280;57434;42.794;23.302;2023-03-20T02:05:42;95924.00;;;1.10;70.05
70072;BME280;57434;42.794;23.302;2023-03-20T02:06:45;95933.31;;;0.96;70.16
70072;BME280;57434;42.794;23.302;2023-03-20T02:07:58;95789.09;;;0.02;70.34
70072;BME280;57434;42.794;23.302;2023-03-20T02:09:03;95971.09;;;1.02;70.82
70072;BME280;57434;42.794;23.302;2023-03-20T02:10:09;95922.78;;;0.67;70.86
70072;BME280;57434;42.794;23.302;2023-03-20T02:11:12;95943.41;;;1.06;70.75
70072;BME280;57434;42.794;23.302;2023-03-20T02:12:14;95846.81;;;0.13;70.68
70072;BME280;57434;42.794;23.302;2023-03-20T02:13:17;95762.56;;;-0.15;70.62
70072;BME280;57434;42.794;23.302;2023-03-20T02:14:21;95956.34;;;0.89;70.88
70072;BME280;57434;42.794;23.302;2023-03-20T02:15:25;95807.19;;;0.03;70.68
70072;BME280;57434;42.794;23.302;2023-03-20T02:16:27;95822.19;;;0.02;70.84
70072;BME280;57434;42.794;23.302;2023-03-20T02:17:29;95937.50;;;0.84;70.96
70072;BME280;57434;42.794;23.302;2023-03-20T02:18:32;95962.25;;;1.11;70.89
70072;BME280;57434;42.794;23.302;2023-03-20T02:21:59;95950.72;;;1.16;70.49
70072;BME280;57434;42.794;23.302;2023-03-20T02:23:26;95944.84;;;1.34;70.00
70072;BME280;57434;42.794;23.302;2023-03-20T02:27:32;95955.69;;;1.45;69.97
70072;BME280;57434;42.794;23.302;2023-03-20T02:28:55;95956.91;;;1.44;69.89
70072;BME280;57434;42.794;23.302;2023-03-20T02:33:35;95960.84;;;1.23;69.64
70072;BME280;57434;42.794;23.302;2023-03-20T02:37:01;95961.28;;;0.98;69.61
70072;BME280;57434;42.794;23.302;2023-03-20T02:40:57;95952.66;;;0.73;70.19
70072;BME280;57434;42.794;23.302;2023-03-20T02:42:10;95873.81;;;0.25;70.24
70072;BME280;57434;42.794;23.302;2023-03-20T02:45:45;95911.09;;;0.37;69.44
70072;BME280;57434;42.794;23.302;2023-03-20T02:47:25;95813.75;;;-0.38;69.45
70072;BME280;57434;42.794;23.302;2023-03-20T02:48:47;95812.91;;;-0.88;70.09
70072;BME280;57434;42.794;23.302;2023-03-20T02:50:12;95786.91;;;-1.48;71.77
70072;BME280;57434;42.794;23.302;2023-03-20T02:51:40;95974.97;;;-0.19;71.78
70072;BME280;57434;42.794;23.302;2023-03-20T02:52:55;95943.13;;;-0.23;71.34
70072;BME280;57434;42.794;23.302;2023-03-20T02:55:19;95912.81;;;-0.54;71.25
70072;BME280;57434;42.794;23.302;2023-03-20T03:00:37;95840.97;;;-1.31;73.17
70072;BME280;57434;42.794;23.302;2023-03-20T03:01:50;95761.81;;;-1.88;73.19
70072;BME280;57434;42.794;23.302;2023-03-20T03:04:17;95788.00;;;-1.42;73.30
70072;BME280;57434;42.794;23.302;2023-03-20T03:05:50;95933.84;;;-0.37;72.83
70072;BME280;57434;42.794;23.302;2023-03-20T03:06:55;95951.44;;;-0.27;72.93
70072;BME280;57434;42.794;23.302;2023-03-20T03:07:59;95884.53;;;-0.58;72.84
70072;BME280;57434;42.794;23.302;2023-03-20T03:09:06;95911.00;;;-0.37;72.66
70072;BME280;57434;42.794;23.302;2023-03-20T03:10:15;95935.28;;;-0.25;72.15
70072;BME280;57434;42.794;23.302;2023-03-20T03:11:20;95970.41;;;-0.02;71.95
70072;BME280;57434;42.794;23.302;2023-03-20T03:12:29;95933.63;;;-0.19;72.30
70072;BME280;57434;42.794;23.302;2023-03-20T03:13:36;95778.94;;;-1.09;72.05
70072;BME280;57434;42.794;23.302;2023-03-20T03:14:48;95927.97;;;-0.12;71.92
70072;BME280;57434;42.794;23.302;2023-03-20T03:15:54;95912.19;;;-0.38;72.56
70072;BME280;57434;42.794;23.302;2023-03-20T03:17:01;95929.16;;;-0.40;72.72
70072;BME280;57434;42.794;23.302;2023-03-20T03:18:06;95906.03;;;-0.46;72.85
70072;BME280;57434;42.794;23.302;2023-03-20T03:19:17;95936.88;;;-0.27;73.14
70072;BME280;57434;42.794;23.302;2023-03-20T03:20:24;95950.28;;;-0.29;73.26
70072;BME280;57434;42.794;23.302;2023-03-20T03:21:29;95915.53;;;-0.50;73.12
70072;BME280;57434;42.794;23.302;2023-03-20T03:22:32;95855.44;;;-0.93;73.30
70072;BME280;57434;42.794;23.302;2023-03-20T03:23:41;95794.56;;;-1.29;73.67
70072;BME280;57434;42.794;23.302;2023-03-20T03:24:48;95799.03;;;-1.42;74.03
70072;BME280;57434;42.794;23.302;2023-03-20T03:25:52;95797.38;;;-1.36;74.88
70072;BME280;57434;42.794;23.302;2023-03-20T03:26:57;95961.19;;;-0.19;74.72
70072;BME280;57434;42.794;23.302;2023-03-20T03:28:07;95934.66;;;-0.40;74.03
70072;BME280;57434;42.794;23.302;2023-03-20T03:29:15;95801.38;;;-1.10;73.27
70072;BME280;57434;42.794;23.302;2023-03-20T03:30:25;95862.88;;;-0.59;72.93
70072;BME280;57434;42.794;23.302;2023-03-20T03:31:29;95808.59;;;-0.89;72.79
70072;BME280;57434;42.794;23.302;2023-03-20T03:32:37;95845.78;;;-0.74;72.94
70072;BME280;57434;42.794;23.302;2023-03-20T03:33:51;95942.13;;;-0.10;72.99
70072;BME280;57434;42.794;23.302;2023-03-20T03:34:54;95809.19;;;-1.05;73.11
70072;BME280;57434;42.794;23.302;2023-03-20T03:37:18;95778.16;;;-1.09;73.49
70072;BME280;57434;42.794;23.302;2023-03-20T03:38:36;95947.09;;;0.02;72.74
70072;BME280;57434;42.794;23.302;2023-03-20T03:43:38;95844.34;;;-0.86;73.13
70072;BME280;57434;42.794;23.302;2023-03-20T03:44:55;95958.34;;;-0.15;73.05
70072;BME280;57434;42.794;23.302;2023-03-20T03:48:01;95887.22;;;-0.85;74.10
70072;BME280;57434;42.794;23.302;2023-03-20T03:49:07;95927.72;;;-0.82;74.54
70072;BME280;57434;42.794;23.302;2023-03-20T03:50:41;95939.31;;;-0.33;74.31
70072;BME280;57434;42.794;23.302;2023-03-20T03:51:48;95881.94;;;-0.72;74.02
70072;BME280;57434;42.794;23.302;2023-03-20T03:52:53;95948.72;;;-0.30;73.86
70072;BME280;57434;42.794;23.302;2023-03-20T03:54:10;95908.16;;;-0.60;74.14
70072;BME280;57434;42.794;23.302;2023-03-20T03:55:21;95782.34;;;-1.28;73.83
70072;BME280;57434;42.794;23.302;2023-03-20T03:56:27;95600.81;;;-2.64;73.45
70072;BME280;57434;42.794;23.302;2023-03-20T03:57:40;95817.47;;;-1.39;73.69
70072;BME280;57434;42.794;23.302;2023-03-20T03:58:46;95797.31;;;-1.29;73.69
70072;BME280;57434;42.794;23.302;2023-03-20T03:59:50;95820.94;;;-1.01;73.65
70072;BME280;57434;42.794;23.302;2023-03-20T04:00:55;95822.22;;;-1.09;73.74
70072;BME280;57434;42.794;23.302;2023-03-20T04:01:59;95804.22;;;-1.17;73.46
70072;BME280;57434;42.794;23.302;2023-03-20T04:03:04;95785.56;;;-1.33;73.46
70072;BME280;57434;42.794;23.302;2023-03-20T04:04:07;95898.00;;;-0.67;73.47
70072;BME280;57434;42.794;23.302;2023-03-20T04:05:11;95907.16;;;-0.74;73.42
70072;BME280;57434;42.794;23.302;2023-03-20T04:06:15;95914.69;;;-0.78;73.94
70072;BME280;57434;42.794;23.302;2023-03-20T04:07:17;95776.88;;;-1.65;73.66
70072;BME280;57434;42.794;23.302;2023-03-20T04:08:19;95808.13;;;-1.15;73.35
70072;BME280;57434;42.794;23.302;2023-03-20T04:09:21;95883.66;;;-0.51;73.16
70072;BME280;57434;42.794;23.302;2023-03-20T04:10:23;95861.56;;;-0.48;73.12
70072;BME280;57434;42.794;23.302;2023-03-20T04:11:26;95881.41;;;-0.33;73.07
70072;BME280;57434;42.794;23.302;2023-03-20T04:12:33;95933.50;;;0.15;73.67
70072;BME280;57434;42.794;23.302;2023-03-20T04:13:35;95903.53;;;-0.10;73.47
70072;BME280;57434;42.794;23.302;2023-03-20T04:14:36;95787.78;;;-0.94;73.17
70072;BME280;57434;42.794;23.302;2023-03-20T04:15:38;95922.34;;;-0.32;73.90
70072;BME280;57434;42.794;23.302;2023-03-20T04:16:40;95768.72;;;-1.08;73.51
70072;BME280;57434;42.794;23.302;2023-03-20T04:17:42;95778.00;;;-0.98;73.32
70072;BME280;57434;42.794;23.302;2023-03-20T04:18:44;95917.16;;;-0.26;73.14
70072;BME280;57434;42.794;23.302;2023-03-20T04:19:46;95781.91;;;-0.96;73.15
70072;BME280;57434;42.794;23.302;2023-03-20T04:20:48;95784.16;;;-0.87;73.20
70072;BME280;57434;42.794;23.302;2023-03-20T04:21:50;95913.81;;;-0.14;72.88
70072;BME280;57434;42.794;23.302;2023-03-20T04:22:51;95749.94;;;-1.17;72.28
70072;BME280;57434;42.794;23.302;2023-03-20T04:23:53;95797.06;;;-0.81;72.25
70072;BME280;57434;42.794;23.302;2023-03-20T04:24:55;95878.25;;;-0.32;72.14
70072;BME280;57434;42.794;23.302;2023-03-20T04:25:57;95779.66;;;-1.01;71.73
70072;BME280;57434;42.794;23.302;2023-03-20T04:26:59;95919.66;;;-0.35;71.62
70072;BME280;57434;42.794;23.302;2023-03-20T04:28:01;95861.78;;;-0.66;71.81
70072;BME280;57434;42.794;23.302;2023-03-20T04:29:03;95912.97;;;-0.38;71.93
70072;BME280;57434;42.794;23.302;2023-03-20T04:30:06;95863.94;;;-0.50;71.57
70072;BME280;57434;42.794;23.302;2023-03-20T04:31:09;95768.53;;;-1.24;71.74
70072;BME280;57434;42.794;23.302;2023-03-20T04:32:11;95864.91;;;-0.63;71.73
70072;BME280;57434;42.794;23.302;2023-03-20T04:33:13;95916.75;;;-0.55;71.89
70072;BME280;57434;42.794;23.302;2023-03-20T04:34:14;95796.16;;;-1.31;72.41
70072;BME280;57434;42.794;23.302;2023-03-20T04:35:16;95928.47;;;-0.47;72.79
70072;BME280;57434;42.794;23.302;2023-03-20T04:36:18;95920.72;;;-0.56;72.92
70072;BME280;57434;42.794;23.302;2023-03-20T04:37:20;95939.63;;;-0.27;72.90
70072;BME280;57434;42.794;23.302;2023-03-20T04:38:22;95912.94;;;-0.34;72.70
70072;BME280;57434;42.794;23.302;2023-03-20T04:39:24;95892.94;;;-0.42;72.70
70072;BME280;57434;42.794;23.302;2023-03-20T04:40:26;95910.47;;;-0.55;72.58
70072;BME280;57434;42.794;23.302;2023-03-20T04:41:28;95831.72;;;-0.83;72.67
70072;BME280;57434;42.794;23.302;2023-03-20T04:42:29;95801.81;;;-1.12;72.73
70072;BME280;57434;42.794;23.302;2023-03-20T04:43:31;95758.94;;;-1.43;72.97
70072;BME280;57434;42.794;23.302;2023-03-20T04:44:33;95915.13;;;-0.49;73.46
70072;BME280;57434;42.794;23.302;2023-03-20T04:45:35;95929.75;;;-0.25;73.25
70072;BME280;57434;42.794;23.302;2023-03-20T04:46:37;95902.22;;;-0.28;73.05
70072;BME280;57434;42.794;23.302;2023-03-20T04:47:39;95963.38;;;-0.07;73.01
70072;BME280;57434;42.794;23.302;2023-03-20T04:48:41;95926.28;;;-0.02;72.74
70072;BME280;57434;42.794;23.302;2023-03-20T04:49:43;95852.97;;;-0.53;72.90
70072;BME280;57434;42.794;23.302;2023-03-20T04:50:45;95930.31;;;-0.10;73.35
70072;BME280;57434;42.794;23.302;2023-03-20T04:51:47;95954.31;;;0.20;73.26
70072;BME280;57434;42.794;23.302;2023-03-20T04:52:49;95798.47;;;-0.69;73.18
70072;BME280;57434;42.794;23.302;2023-03-20T04:53:50;95937.19;;;0.32;73.16
70072;BME280;57434;42.794;23.302;2023-03-20T04:54:53;95911.09;;;0.10;72.85
70072;BME280;57434;42.794;23.302;2023-03-20T04:55:55;95947.47;;;0.55;72.79
70072;BME280;57434;42.794;23.302;2023-03-20T04:56:56;95942.94;;;0.41;72.60
70072;BME280;57434;42.794;23.302;2023-03-20T04:57:58;95922.56;;;0.35;72.27
70072;BME280;57434;42.794;23.302;2023-03-20T04:59:00;95950.38;;;0.44;72.20
70072;BME280;57434;42.794;23.302;2023-03-20T05:00:03;95846.31;;;-0.29;72.01
70072;BME280;57434;42.794;23.302;2023-03-20T05:01:05;95843.69;;;-0.13;72.20
70072;BME280;57434;42.794;23.302;2023-03-20T05:02:07;95945.47;;;0.55;72.06
70072;BME280;57434;42.794;23.302;2023-03-20T05:03:09;95913.25;;;0.25;72.18
70072;BME280;57434;42.794;23.302;2023-03-20T05:04:10;95804.16;;;-0.53;72.12
70072;BME280;57434;42.794;23.302;2023-03-20T05:05:12;95841.28;;;-0.11;72.30
70072;BME280;57434;42.794;23.302;2023-03-20T05:06:14;95965.75;;;0.68;72.28
70072;BME280;57434;42.794;23.302;2023-03-20T05:07:16;95828.06;;;-0.46;72.60
70072;BME280;57434;42.794;23.302;2023-03-20T05:08:18;96000.75;;;0.52;72.67
70072;BME280;57434;42.794;23.302;2023-03-20T05:09:20;95952.00;;;0.42;72.69
70072;BME280;57434;42.794;23.302;2023-03-20T05:10:22;95955.44;;;0.49;72.66
70072;BME280;57434;42.794;23.302;2023-03-20T05:11:27;95956.38;;;0.39;72.47
70072;BME280;57434;42.794;23.302;2023-03-20T05:12:29;96006.59;;;0.57;72.32
70072;BME280;57434;42.794;23.302;2023-03-20T05:13:31;95827.63;;;-0.45;72.22
70072;BME280;57434;42.794;23.302;2023-03-20T05:14:35;95823.13;;;-0.58;72.39
70072;BME280;57434;42.794;23.302;2023-03-20T05:15:37;95938.06;;;0.25;72.70
70072;BME280;57434;42.794;23.302;2023-03-20T05:16:39;95948.25;;;0.55;72.64
70072;BME280;57434;42.794;23.302;2023-03-20T05:17:41;95904.34;;;0.38;72.64
70072;BME280;57434;42.794;23.302;2023-03-20T05:18:43;95868.97;;;-0.18;72.61
70072;BME280;57434;42.794;23.302;2023-03-20T05:19:44;95978.09;;;0.64;72.18
70072;BME280;57434;42.794;23.302;2023-03-20T05:20:48;95952.72;;;0.46;72.22
70072;BME280;57434;42.794;23.302;2023-03-20T05:21:50;95933.47;;;0.42;72.19
70072;BME280;57434;42.794;23.302;2023-03-20T05:22:51;95892.94;;;0.12;72.00
70072;BME280;57434;42.794;23.302;2023-03-20T05:23:53;95878.56;;;-0.26;73.11
70072;BME280;57434;42.794;23.302;2023-03-20T05:24:55;95824.00;;;-0.38;73.10
70072;BME280;57434;42.794;23.302;2023-03-20T05:25:57;95825.66;;;-0.44;73.17
70072;BME280;57434;42.794;23.302;2023-03-20T05:26:59;95957.34;;;0.29;73.97
70072;BME280;57434;42.794;23.302;2023-03-20T05:28:00;95949.66;;;0.40;73.97
70072;BME280;57434;42.794;23.302;2023-03-20T05:29:02;95856.13;;;-0.01;73.51
70072;BME280;57434;42.794;23.302;2023-03-20T05:30:04;96005.28;;;0.89;73.27
70072;BME280;57434;42.794;23.302;2023-03-20T05:31:06;95993.50;;;0.85;73.13
70072;BME280;57434;42.794;23.302;2023-03-20T05:32:08;95968.75;;;0.78;73.20
70072;BME280;57434;42.794;23.302;2023-03-20T05:33:10;95856.81;;;0.07;73.19
70072;BME280;57434;42.794;23.302;2023-03-20T05:34:12;95917.81;;;0.59;73.22
70072;BME280;57434;42.794;23.302;2023-03-20T05:35:14;96009.72;;;1.06;73.38
70072;BME280;57434;42.794;23.302;2023-03-20T05:36:16;95827.59;;;0.09;72.81
70072;BME280;57434;42.794;23.302;2023-03-20T05:37:18;95980.25;;;1.19;72.88
70072;BME280;57434;42.794;23.302;2023-03-20T05:38:19;95978.84;;;1.11;72.80
70072;BME280;57434;42.794;23.302;2023-03-20T05:39:21;95969.97;;;1.20;72.54
70072;BME280;57434;42.794;23.302;2023-03-20T05:40:23;95928.31;;;0.91;72.68
70072;BME280;57434;42.794;23.302;2023-03-20T05:41:25;95948.50;;;1.08;73.01
70072;BME280;57434;42.794;23.302;2023-03-20T05:42:26;95947.03;;;1.23;72.63
70072;BME280;57434;42.794;23.302;2023-03-20T05:43:28;95953.25;;;1.27;72.49
70072;BME280;57434;42.794;23.302;2023-03-20T05:44:30;95961.22;;;1.45;72.14
70072;BME280;57434;42.794;23.302;2023-03-20T05:45:32;95969.84;;;1.47;71.97
70072;BME280;57434;42.794;23.302;2023-03-20T05:46:34;95894.50;;;1.03;71.87
70072;BME280;57434;42.794;23.302;2023-03-20T05:47:36;95826.84;;;0.72;71.79
70072;BME280;57434;42.794;23.302;2023-03-20T05:48:38;95960.22;;;1.55;71.94
70072;BME280;57434;42.794;23.302;2023-03-20T05:49:40;95923.38;;;1.42;72.53
70072;BME280;57434;42.794;23.302;2023-03-20T05:50:41;95861.84;;;0.98;72.64
70072;BME280;57434;42.794;23.302;2023-03-20T05:51:43;95998.63;;;1.89;72.80
70072;BME280;57434;42.794;23.302;2023-03-20T05:52:48;95860.88;;;1.08;72.62
70072;BME280;57434;42.794;23.302;2023-03-20T05:53:50;95956.56;;;1.78;72.71
70072;BME280;57434;42.794;23.302;2023-03-20T05:54:52;95981.13;;;1.76;73.30
70072;BME280;57434;42.794;23.302;2023-03-20T05:55:54;95861.34;;;1.03;73.76
70072;BME280;57434;42.794;23.302;2023-03-20T05:56:55;95874.88;;;0.97;74.52
70072;BME280;57434;42.794;23.302;2023-03-20T05:57:59;95994.69;;;1.70;74.76
70072;BME280;57434;42.794;23.302;2023-03-20T05:59:01;95956.81;;;1.67;74.46
70072;BME280;57434;42.794;23.302;2023-03-20T06:00:03;95883.75;;;1.28;74.50
70072;BME280;57434;42.794;23.302;2023-03-20T06:01:06;95878.56;;;1.30;74.36
70072;BME280;57434;42.794;23.302;2023-03-20T06:02:07;95970.22;;;2.04;74.41
70072;BME280;57434;42.794;23.302;2023-03-20T06:03:09;95995.91;;;2.25;73.96
70072;BME280;57434;42.794;23.302;2023-03-20T06:04:11;95943.81;;;1.84;73.47
70072;BME280;57434;42.794;23.302;2023-03-20T06:05:13;95956.81;;;2.03;73.90
70072;BME280;57434;42.794;23.302;2023-03-20T06:06:16;95969.25;;;2.31;73.88
70072;BME280;57434;42.794;23.302;2023-03-20T06:07:18;95881.72;;;1.68;73.89
70072;BME280;57434;42.794;23.302;2023-03-20T06:08:20;95859.94;;;1.70;73.66
70072;BME280;57434;42.794;23.302;2023-03-20T06:09:21;95889.97;;;2.04;73.86
70072;BME280;57434;42.794;23.302;2023-03-20T06:10:23;95967.06;;;2.22;73.66
70072;BME280;57434;42.794;23.302;2023-03-20T06:11:25;95962.34;;;2.39;74.01
70072;BME280;57434;42.794;23.302;2023-03-20T06:12:27;95972.53;;;2.58;73.98
70072;BME280;57434;42.794;23.302;2023-03-20T06:13:29;95988.31;;;2.78;73.72
70072;BME280;57434;42.794;23.302;2023-03-20T06:14:30;95852.78;;;1.73;73.86
70072;BME280;57434;42.794;23.302;2023-03-20T06:15:32;95941.41;;;2.54;73.54